createdAt,value
2019-03-05T00:00:49.843Z,3.40
2019-03-05T00:03:19.141Z,3.77
2019-03-05T00:05:48.911Z,3.33
2019-03-05T00:08:20.334Z,3.50
2019-03-05T00:10:49.593Z,3.70
2019-03-05T00:13:20.081Z,3.07
2019-03-05T00:15:50.745Z,3.30
2019-03-05T00:18:22.009Z,3.10
2019-03-05T00:20:51.269Z,3.17
2019-03-05T00:24:02.966Z,3.10
2019-03-05T00:26:35.508Z,3.77
2019-03-05T00:29:26.351Z,3.77
2019-03-05T00:31:57.445Z,3.60
2019-03-05T00:35:05.086Z,3.57
2019-03-05T00:37:55.747Z,3.73
2019-03-05T00:40:43.934Z,3.67
2019-03-05T00:43:37.706Z,4.00
2019-03-05T00:46:35.563Z,3.90
2019-03-05T00:49:44.186Z,3.67
2019-03-05T00:52:45.554Z,3.93
2019-03-05T00:55:50.958Z,4.00
2019-03-05T00:58:31.100Z,3.50
2019-03-05T01:01:49.794Z,4.30
2019-03-05T01:05:06.528Z,4.00
2019-03-05T01:07:36.033Z,4.17
2019-03-05T01:10:06.326Z,4.60
2019-03-05T01:12:36.478Z,4.17
2019-03-05T01:15:06.643Z,4.53
2019-03-05T01:17:37.326Z,3.83
2019-03-05T01:20:06.838Z,4.03
2019-03-05T01:22:36.467Z,4.00
2019-03-05T01:25:06.581Z,3.83
2019-03-05T01:27:35.936Z,4.47
2019-03-05T01:30:07.271Z,4.57
2019-03-05T01:32:45.143Z,3.83
2019-03-05T01:35:22.735Z,4.07
2019-03-05T01:37:52.141Z,4.10
2019-03-05T01:40:43.563Z,3.73
2019-03-05T01:43:16.789Z,3.70
2019-03-05T01:45:46.187Z,3.80
2019-03-05T01:48:15.931Z,3.30
2019-03-05T01:50:46.395Z,3.90
2019-03-05T01:53:15.821Z,3.60
2019-03-05T01:55:46.923Z,3.40
2019-03-05T01:58:16.190Z,3.53
2019-03-05T02:00:45.387Z,3.47
2019-03-05T02:03:15.034Z,3.50
2019-03-05T02:05:47.932Z,4.50
2019-03-05T02:08:17.168Z,3.63
2019-03-05T02:10:46.534Z,3.30
2019-03-05T02:13:17.110Z,2.97
2019-03-05T02:15:46.620Z,2.90
2019-03-05T02:18:20.504Z,3.40
2019-03-05T02:20:51.238Z,2.80
2019-03-05T02:23:33.008Z,2.97
2019-03-05T02:26:43.715Z,3.50
2019-03-05T02:29:59.270Z,3.50
2019-03-05T02:33:03.401Z,3.30
2019-03-05T02:36:04.558Z,3.00
2019-03-05T02:39:15.180Z,3.50
2019-03-05T02:42:00.946Z,3.30
2019-03-05T02:44:58.817Z,3.30
2019-03-05T02:47:51.977Z,3.50
2019-03-05T02:50:50.700Z,3.27
2019-03-05T02:54:05.648Z,3.30
2019-03-05T02:57:10.255Z,3.30
2019-03-05T02:59:39.821Z,3.27
2019-03-05T03:02:37.103Z,3.30
2019-03-05T03:05:18.205Z,3.93
2019-03-05T03:07:47.965Z,3.13
2019-03-05T03:10:20.191Z,3.37
2019-03-05T03:12:49.581Z,3.70
2019-03-05T03:15:19.939Z,3.10
2019-03-05T03:17:51.226Z,3.40
2019-03-05T03:20:22.871Z,3.13
2019-03-05T03:22:52.561Z,3.37
2019-03-05T03:25:23.214Z,3.20
2019-03-05T03:27:54.078Z,3.60
2019-03-05T03:30:25.872Z,3.50
2019-03-05T03:32:55.359Z,3.30
2019-03-05T03:35:26.600Z,2.60
2019-03-05T03:37:55.891Z,3.00
2019-03-05T03:40:25.625Z,2.93
2019-03-05T03:42:55.496Z,2.87
2019-03-05T03:45:26.244Z,2.90
2019-03-05T03:47:55.536Z,3.57
2019-03-05T03:50:24.887Z,3.23
2019-03-05T03:52:54.288Z,2.70
2019-03-05T03:55:24.202Z,3.70
2019-03-05T03:57:54.222Z,2.67
2019-03-05T04:00:24.722Z,2.60
2019-03-05T04:02:54.949Z,2.90
2019-03-05T04:05:24.242Z,2.37
2019-03-05T04:07:53.621Z,3.50
2019-03-05T04:10:27.715Z,2.97
2019-03-05T04:12:57.116Z,2.10
2019-03-05T04:15:26.406Z,2.40
2019-03-05T04:17:55.705Z,2.40
2019-03-05T04:20:43.103Z,2.30
2019-03-05T04:23:12.353Z,2.40
2019-03-05T04:25:41.663Z,2.40
2019-03-05T04:28:11.130Z,2.53
2019-03-05T04:30:40.422Z,2.60
2019-03-05T04:33:09.590Z,2.70
2019-03-05T04:35:38.924Z,2.50
2019-03-05T04:38:08.300Z,2.67
2019-03-05T04:40:37.536Z,2.40
2019-03-05T04:43:06.835Z,3.03
2019-03-05T04:45:51.355Z,2.90
2019-03-05T04:48:20.697Z,3.13
2019-03-05T04:50:56.632Z,3.40
2019-03-05T04:53:25.954Z,3.10
2019-03-05T04:55:55.240Z,3.27
2019-03-05T04:58:24.568Z,3.17
2019-03-05T05:00:55.065Z,3.40
2019-03-05T05:03:25.799Z,3.20
2019-03-05T05:05:55.028Z,3.40
2019-03-05T05:08:24.429Z,3.90
2019-03-05T05:10:53.709Z,3.60
2019-03-05T05:13:23.001Z,3.93
2019-03-05T05:15:54.939Z,4.20
2019-03-05T05:18:24.340Z,3.87
2019-03-05T05:20:55.637Z,3.93
2019-03-05T05:23:24.826Z,4.00
2019-03-05T05:25:54.061Z,4.57
2019-03-05T05:28:23.493Z,4.03
2019-03-05T05:31:01.985Z,4.40
2019-03-05T05:33:31.591Z,4.00
2019-03-05T05:36:00.932Z,4.60
2019-03-05T05:38:30.292Z,4.30
2019-03-05T05:40:59.566Z,4.93
2019-03-05T05:43:31.493Z,5.00
2019-03-05T05:46:00.997Z,5.20
2019-03-05T05:48:30.502Z,4.70
2019-03-05T05:50:59.872Z,4.93
2019-03-05T05:53:29.283Z,5.10
2019-03-05T05:56:01.745Z,5.00
2019-03-05T05:58:31.121Z,4.97
2019-03-05T06:01:02.954Z,4.87
2019-03-05T06:03:32.288Z,5.43
2019-03-05T06:06:01.697Z,5.10
2019-03-05T06:08:31.085Z,4.80
2019-03-05T06:11:00.610Z,4.93
2019-03-05T06:13:30.061Z,5.17
2019-03-05T06:15:59.646Z,5.13
2019-03-05T06:18:30.373Z,5.27
2019-03-05T06:20:59.772Z,5.43
2019-03-05T06:23:29.355Z,5.40
2019-03-05T06:26:00.561Z,5.13
2019-03-05T06:28:29.783Z,5.37
2019-03-05T06:30:59.628Z,5.03
2019-03-05T06:33:28.924Z,5.40
2019-03-05T06:35:58.234Z,5.23
2019-03-05T06:38:29.000Z,5.33
2019-03-05T06:40:59.577Z,5.33
2019-03-05T06:43:28.861Z,5.17
2019-03-05T06:45:58.174Z,5.57
2019-03-05T06:48:27.504Z,5.03
2019-03-05T06:50:56.901Z,5.93
2019-03-05T06:53:27.388Z,5.27
2019-03-05T06:55:56.851Z,4.97
2019-03-05T06:58:27.124Z,4.73
2019-03-05T07:00:56.525Z,4.90
2019-03-05T07:03:26.994Z,4.87
2019-03-05T07:06:33.485Z,4.80
2019-03-05T07:09:49.696Z,5.13
2019-03-05T07:13:02.552Z,4.80
2019-03-05T07:15:59.841Z,4.93
2019-03-05T07:18:45.791Z,4.50
2019-03-05T07:21:55.257Z,4.37
2019-03-05T07:24:48.675Z,4.90
2019-03-05T07:27:31.534Z,4.60
2019-03-05T07:30:17.809Z,4.77
2019-03-05T07:32:48.912Z,4.83
2019-03-05T07:35:21.474Z,4.10
2019-03-05T07:37:52.865Z,4.33
2019-03-05T07:40:22.601Z,4.17
2019-03-05T07:42:52.011Z,4.27
2019-03-05T07:45:21.595Z,4.73
2019-03-05T07:47:52.690Z,4.00
2019-03-05T07:50:25.522Z,4.80
2019-03-05T07:52:54.810Z,4.50
2019-03-05T07:55:24.359Z,3.93
2019-03-05T07:57:56.933Z,4.13
2019-03-05T08:00:26.326Z,4.60
2019-03-05T08:02:57.345Z,4.80
2019-03-05T08:05:31.608Z,4.17
2019-03-05T08:08:38.244Z,4.90
2019-03-05T08:11:07.737Z,4.40
2019-03-05T08:14:06.526Z,4.80
2019-03-05T08:16:41.698Z,5.13
2019-03-05T08:19:11.764Z,5.00
2019-03-05T08:21:40.925Z,5.00
2019-03-05T08:24:12.073Z,5.07
2019-03-05T08:26:41.619Z,4.80
2019-03-05T08:29:11.096Z,4.30
2019-03-05T08:31:40.382Z,4.13
2019-03-05T08:34:10.874Z,4.00
2019-03-05T08:36:41.725Z,4.20
2019-03-05T08:39:17.870Z,4.10
2019-03-05T08:41:50.949Z,3.93
2019-03-05T08:44:23.984Z,3.97
2019-03-05T08:46:54.590Z,4.33
2019-03-05T08:49:23.931Z,4.20
2019-03-05T08:51:53.210Z,4.33
2019-03-05T08:54:22.788Z,3.60
2019-03-05T08:56:53.915Z,4.13
2019-03-05T08:59:24.832Z,3.67
2019-03-05T09:01:54.169Z,3.60
2019-03-05T09:04:28.347Z,3.50
2019-03-05T09:07:02.372Z,3.40
2019-03-05T09:09:31.556Z,4.23
2019-03-05T09:12:04.536Z,3.60
2019-03-05T09:14:34.589Z,4.00
2019-03-05T09:17:10.444Z,3.70
2019-03-05T09:19:45.409Z,3.13
2019-03-05T09:22:14.517Z,2.70
2019-03-05T09:24:52.100Z,3.43
2019-03-05T09:27:21.039Z,3.57
2019-03-05T09:29:50.617Z,3.60
2019-03-05T09:32:21.079Z,3.10
2019-03-05T09:34:52.185Z,2.90
2019-03-05T09:37:21.630Z,3.00
2019-03-05T09:39:52.435Z,3.40
2019-03-05T09:42:22.744Z,3.07
2019-03-05T09:44:52.015Z,3.03
2019-03-05T09:47:21.451Z,3.67
2019-03-05T09:49:50.790Z,3.50
2019-03-05T09:52:19.910Z,2.70
2019-03-05T09:54:51.075Z,3.60
2019-03-05T09:57:20.497Z,3.13
2019-03-05T09:59:49.703Z,3.10
2019-03-05T10:02:18.926Z,3.07
2019-03-05T10:04:48.149Z,3.87
2019-03-05T10:07:19.269Z,2.90
2019-03-05T10:09:50.273Z,3.30
2019-03-05T10:12:19.673Z,2.87
2019-03-05T10:14:48.886Z,3.93
2019-03-05T10:17:20.177Z,3.33
2019-03-05T10:19:49.574Z,3.70
2019-03-05T10:22:18.878Z,3.37
2019-03-05T10:24:48.447Z,3.30
2019-03-05T10:27:18.224Z,3.57
2019-03-05T10:29:47.431Z,3.60
2019-03-05T10:32:17.023Z,3.20
2019-03-05T10:34:46.788Z,3.20
2019-03-05T10:37:19.905Z,3.37
2019-03-05T10:39:50.381Z,3.00
2019-03-05T10:42:22.640Z,3.27
2019-03-05T10:44:55.262Z,3.07
2019-03-05T10:47:25.131Z,2.73
2019-03-05T10:49:55.676Z,3.20
2019-03-05T10:52:25.088Z,2.93
2019-03-05T10:54:54.664Z,2.90
2019-03-05T10:57:24.067Z,3.10
2019-03-05T10:59:54.892Z,3.30
2019-03-05T11:02:25.745Z,4.07
2019-03-05T11:04:56.199Z,3.27
2019-03-05T11:07:28.578Z,3.87
2019-03-05T11:09:59.724Z,3.20
2019-03-05T11:12:29.377Z,2.97
2019-03-05T11:14:58.774Z,2.80
2019-03-05T11:17:30.092Z,2.80
2019-03-05T11:19:59.477Z,2.87
2019-03-05T11:22:29.942Z,3.00
2019-03-05T11:25:00.418Z,3.10
2019-03-05T11:27:29.765Z,3.10
2019-03-05T11:30:00.176Z,2.57
2019-03-05T11:32:31.210Z,3.50
2019-03-05T11:35:00.723Z,3.60
2019-03-05T11:37:30.229Z,2.67
2019-03-05T11:39:59.731Z,3.10
2019-03-05T11:42:29.273Z,2.80
2019-03-05T11:45:07.090Z,3.00
2019-03-05T11:47:29.866Z,3.03
2019-03-05T11:49:59.282Z,3.10
2019-03-05T11:52:29.744Z,2.70
2019-03-05T11:54:59.238Z,2.80
2019-03-05T11:57:29.985Z,2.80
2019-03-05T12:00:00.905Z,2.70
2019-03-05T12:02:31.426Z,2.70
2019-03-05T12:05:00.826Z,2.70
2019-03-05T12:07:32.453Z,2.50
2019-03-05T12:10:02.174Z,3.07
2019-03-05T12:12:32.612Z,2.60
2019-03-05T12:15:02.094Z,2.50
2019-03-05T12:17:31.742Z,2.57
2019-03-05T12:20:07.453Z,2.50
2019-03-05T12:22:36.507Z,2.03
2019-03-05T12:25:07.154Z,3.10
2019-03-05T12:27:36.666Z,2.70
2019-03-05T12:30:07.309Z,2.30
2019-03-05T12:32:36.717Z,2.53
2019-03-05T12:35:07.030Z,3.20
2019-03-05T12:37:38.227Z,2.90
2019-03-05T12:40:12.867Z,2.63
2019-03-05T12:42:42.499Z,2.60
2019-03-05T12:45:12.528Z,3.03
2019-03-05T12:47:42.030Z,3.40
2019-03-05T12:50:15.041Z,3.17
2019-03-05T12:52:45.067Z,2.93
2019-03-05T12:55:14.930Z,3.27
2019-03-05T12:57:45.682Z,3.00
2019-03-05T13:00:18.759Z,3.10
2019-03-05T13:02:48.157Z,3.30
2019-03-05T13:05:17.553Z,2.90
2019-03-05T13:07:47.048Z,3.27
2019-03-05T13:10:19.503Z,2.90
2019-03-05T13:12:48.808Z,3.63
2019-03-05T13:15:21.377Z,4.10
2019-03-05T13:17:51.493Z,4.00
2019-03-05T13:20:22.686Z,4.40
2019-03-05T13:22:54.179Z,5.30
2019-03-05T13:25:24.327Z,5.93
2019-03-05T13:27:57.541Z,6.47
2019-03-05T13:30:27.080Z,7.37
2019-03-05T13:33:00.565Z,5.80
2019-03-05T13:35:30.864Z,6.00
2019-03-05T13:38:03.449Z,5.60
2019-03-05T13:40:34.186Z,7.27
2019-03-05T13:43:03.240Z,4.83
2019-03-05T13:45:32.913Z,4.93
2019-03-05T13:48:19.675Z,4.93
2019-03-05T13:51:42.470Z,3.80
2019-03-05T13:54:38.677Z,3.80
2019-03-05T13:57:55.114Z,4.13
2019-03-05T14:00:27.527Z,3.40
2019-03-05T14:03:11.533Z,3.20
2019-03-05T14:06:12.585Z,2.90
2019-03-05T14:08:52.423Z,2.73
2019-03-05T14:11:23.188Z,2.77
2019-03-05T14:13:56.085Z,2.70
2019-03-05T14:16:25.932Z,2.60
2019-03-05T14:18:55.621Z,2.80
2019-03-05T14:21:27.900Z,3.00
2019-03-05T14:23:57.494Z,2.73
2019-03-05T14:26:26.915Z,2.60
2019-03-05T14:28:56.333Z,2.53
2019-03-05T14:31:27.580Z,2.63
2019-03-05T14:33:56.841Z,2.53
2019-03-05T14:36:26.281Z,2.60
2019-03-05T14:38:55.970Z,2.60
2019-03-05T14:41:28.731Z,2.83
2019-03-05T14:43:58.259Z,3.60
2019-03-05T14:46:28.843Z,3.20
2019-03-05T14:48:58.665Z,3.53
2019-03-05T14:51:27.962Z,3.10
2019-03-05T14:53:57.374Z,2.73
2019-03-05T14:56:26.896Z,2.50
2019-03-05T14:58:56.406Z,2.57
2019-03-05T15:01:29.841Z,2.60
2019-03-05T15:04:00.891Z,2.60
2019-03-05T15:06:32.318Z,2.63
2019-03-05T15:09:02.798Z,2.27
2019-03-05T15:11:32.326Z,3.50
2019-03-05T15:14:01.615Z,3.83
2019-03-05T15:16:31.080Z,3.10
2019-03-05T15:19:00.598Z,2.93
2019-03-05T15:21:31.827Z,2.80
2019-03-05T15:24:01.129Z,2.80
2019-03-05T15:26:30.631Z,2.33
2019-03-05T15:29:03.074Z,2.33
2019-03-05T15:31:33.701Z,2.60
2019-03-05T15:34:03.245Z,2.80
2019-03-05T15:36:32.938Z,3.13
2019-03-05T15:39:02.315Z,2.70
2019-03-05T15:41:31.698Z,3.20
2019-03-05T15:44:02.650Z,2.70
2019-03-05T15:46:33.489Z,2.47
2019-03-05T15:49:02.831Z,2.00
2019-03-05T15:51:32.466Z,2.13
2019-03-05T15:54:01.862Z,2.30
2019-03-05T15:56:31.342Z,2.10
2019-03-05T15:59:00.714Z,2.07
2019-03-05T16:01:31.564Z,2.03
2019-03-05T16:04:01.326Z,2.97
2019-03-05T16:06:35.322Z,2.70
2019-03-05T16:09:03.643Z,2.20
2019-03-05T16:11:35.151Z,2.23
2019-03-05T16:14:04.124Z,2.27
2019-03-05T16:16:33.483Z,2.70
2019-03-05T16:19:04.045Z,2.43
2019-03-05T16:21:37.285Z,2.60
2019-03-05T16:24:05.823Z,2.90
2019-03-05T16:26:35.261Z,3.20
2019-03-05T16:29:04.722Z,2.80
2019-03-05T16:31:59.187Z,2.83
2019-03-05T16:34:53.899Z,3.10
2019-03-05T16:37:48.532Z,2.20
2019-03-05T16:40:37.333Z,3.60
2019-03-05T16:43:45.174Z,3.30
2019-03-05T16:46:28.531Z,3.67
2019-03-05T16:49:29.513Z,4.77
2019-03-05T16:52:14.375Z,4.63
2019-03-05T16:54:56.754Z,4.67
2019-03-05T16:57:51.523Z,5.27
2019-03-05T17:00:30.101Z,5.20
2019-03-05T17:03:31.997Z,4.43
2019-03-05T17:06:19.213Z,5.03
2019-03-05T17:09:06.341Z,4.40
2019-03-05T17:12:07.141Z,4.40
2019-03-05T17:14:37.651Z,4.00
2019-03-05T17:17:08.592Z,4.17
2019-03-05T17:19:38.121Z,4.00
2019-03-05T17:22:11.125Z,4.23
2019-03-05T17:24:40.522Z,4.70
2019-03-05T17:27:13.250Z,4.40
2019-03-05T17:29:42.744Z,4.80
2019-03-05T17:32:13.492Z,4.87
2019-03-05T17:34:43.020Z,4.53
2019-03-05T17:37:12.353Z,4.57
2019-03-05T17:39:41.741Z,4.53
2019-03-05T17:42:11.175Z,5.07
2019-03-05T17:44:40.629Z,4.00
2019-03-05T17:47:10.973Z,4.10
2019-03-05T17:49:40.367Z,3.40
2019-03-05T17:52:11.294Z,4.20
2019-03-05T17:54:41.750Z,4.03
2019-03-05T17:57:12.348Z,3.53
2019-03-05T17:59:41.671Z,3.20
2019-03-05T18:02:12.585Z,3.10
2019-03-05T18:04:43.150Z,3.10
2019-03-05T18:07:12.903Z,3.40
2019-03-05T18:09:42.427Z,2.80
2019-03-05T18:12:12.886Z,3.60
2019-03-05T18:14:43.693Z,2.87
2019-03-05T18:17:14.280Z,3.43
2019-03-05T18:19:43.717Z,3.63
2019-03-05T18:22:12.992Z,3.43
2019-03-05T18:24:42.410Z,2.90
2019-03-05T18:27:11.788Z,3.27
2019-03-05T18:29:41.218Z,3.20
2019-03-05T18:32:11.612Z,3.37
2019-03-05T18:34:42.881Z,3.50
2019-03-05T18:37:12.107Z,3.33
2019-03-05T18:39:41.653Z,3.40
2019-03-05T18:42:12.194Z,3.60
2019-03-05T18:44:44.243Z,3.67
2019-03-05T18:47:13.803Z,3.70
2019-03-05T18:49:43.128Z,3.93
2019-03-05T18:52:12.439Z,3.87
2019-03-05T18:54:41.752Z,3.60
2019-03-05T18:57:12.671Z,3.80
2019-03-05T18:59:41.903Z,3.93
2019-03-05T19:02:11.377Z,3.50
2019-03-05T19:04:40.625Z,3.60
2019-03-05T19:07:11.659Z,3.80
2019-03-05T19:09:40.937Z,4.63
2019-03-05T19:12:10.263Z,5.20
2019-03-05T19:14:41.356Z,4.00
2019-03-05T19:17:14.611Z,3.73
2019-03-05T19:19:43.938Z,4.20
2019-03-05T19:22:13.244Z,4.17
2019-03-05T19:24:42.590Z,4.33
2019-03-05T19:27:11.975Z,4.40
2019-03-05T19:29:41.481Z,3.90
2019-03-05T19:32:10.916Z,4.83
2019-03-05T19:34:42.096Z,4.47
2019-03-05T19:37:11.202Z,5.43
2019-03-05T19:39:43.814Z,4.80
2019-03-05T19:42:16.180Z,5.80
2019-03-05T19:44:45.584Z,6.43
2019-03-05T19:47:14.930Z,5.70
2019-03-05T19:49:45.195Z,6.83
2019-03-05T19:52:14.572Z,6.37
2019-03-05T19:54:43.979Z,6.37
2019-03-05T19:57:13.302Z,5.40
2019-03-05T19:59:43.872Z,6.20
2019-03-05T20:02:13.148Z,5.80
2019-03-05T20:04:42.906Z,4.87
2019-03-05T20:07:12.684Z,5.50
2019-03-05T20:09:42.109Z,6.23
2019-03-05T20:12:13.014Z,6.03
2019-03-05T20:14:42.415Z,5.13
2019-03-05T20:17:11.884Z,5.83
2019-03-05T20:19:42.347Z,5.93
2019-03-05T20:22:11.716Z,6.13
2019-03-05T20:24:41.654Z,6.00
2019-03-05T20:27:16.113Z,6.13
2019-03-05T20:29:44.845Z,5.53
2019-03-05T20:32:16.701Z,6.07
2019-03-05T20:34:46.666Z,5.77
2019-03-05T20:37:17.871Z,5.40
2019-03-05T20:39:47.404Z,5.67
2019-03-05T20:42:16.643Z,6.00
2019-03-05T20:44:46.133Z,5.87
2019-03-05T20:47:17.507Z,5.80
2019-03-05T20:49:47.297Z,5.83
2019-03-05T20:52:20.062Z,5.80
2019-03-05T20:54:49.488Z,6.30
2019-03-05T20:57:19.418Z,6.37
2019-03-05T20:59:50.554Z,6.33
2019-03-05T21:02:20.321Z,7.40
2019-03-05T21:04:51.244Z,6.60
2019-03-05T21:07:20.626Z,5.93
2019-03-05T21:09:50.041Z,6.67
2019-03-05T21:12:20.915Z,6.60
2019-03-05T21:14:54.795Z,6.80
2019-03-05T21:17:26.412Z,6.60
2019-03-05T21:19:56.006Z,6.73
2019-03-05T21:22:26.937Z,6.07
2019-03-05T21:24:56.319Z,6.83
2019-03-05T21:27:25.820Z,6.73
2019-03-05T21:29:55.113Z,6.97
2019-03-05T21:32:24.700Z,7.80
2019-03-05T21:34:57.931Z,7.07
2019-03-05T21:37:27.477Z,7.63
2019-03-05T21:39:58.447Z,7.57
2019-03-05T21:42:28.734Z,7.67
2019-03-05T21:44:59.849Z,7.67
2019-03-05T21:47:33.085Z,8.03
2019-03-05T21:50:02.504Z,7.43
2019-03-05T21:52:32.166Z,6.90
2019-03-05T21:55:01.507Z,7.60
2019-03-05T21:57:34.425Z,7.20
2019-03-05T22:00:05.327Z,8.77
2019-03-05T22:02:37.506Z,7.60
2019-03-05T22:05:14.849Z,7.73
2019-03-05T22:07:49.984Z,8.30
2019-03-05T22:10:26.337Z,8.47
2019-03-05T22:12:58.064Z,9.00
2019-03-05T22:15:28.631Z,7.10
2019-03-05T22:17:58.134Z,8.30
2019-03-05T22:20:28.095Z,8.67
2019-03-05T22:23:04.097Z,9.07
2019-03-05T22:25:33.567Z,9.33
2019-03-05T22:28:04.280Z,8.70
2019-03-05T22:30:34.087Z,9.97
2019-03-05T22:33:03.553Z,13.10
2019-03-05T22:35:32.930Z,9.67
2019-03-05T22:38:02.586Z,9.13
2019-03-05T22:40:42.225Z,8.40
2019-03-05T22:43:11.615Z,9.47
2019-03-05T22:45:41.870Z,8.93
2019-03-05T22:48:14.061Z,9.90
2019-03-05T22:50:44.676Z,9.60
2019-03-05T22:53:14.320Z,9.63
2019-03-05T22:55:45.582Z,9.23
2019-03-05T22:58:15.044Z,9.00
2019-03-05T23:00:58.397Z,8.80
2019-03-05T23:03:28.679Z,8.40
2019-03-05T23:06:00.349Z,9.10
2019-03-05T23:08:29.734Z,8.40
2019-03-05T23:10:59.110Z,9.83
2019-03-05T23:13:28.625Z,9.77
2019-03-05T23:15:58.402Z,8.97
2019-03-05T23:18:27.906Z,9.57
2019-03-05T23:20:57.457Z,8.83
2019-03-05T23:23:26.887Z,9.27
2019-03-05T23:25:58.153Z,8.57
2019-03-05T23:28:27.120Z,8.53
2019-03-05T23:30:56.518Z,8.57
2019-03-05T23:33:26.302Z,8.40
2019-03-05T23:35:55.758Z,9.07
2019-03-05T23:38:29.756Z,9.30
2019-03-05T23:40:59.424Z,9.17
2019-03-05T23:43:30.191Z,9.07
2019-03-05T23:46:01.546Z,8.10
2019-03-05T23:48:32.053Z,8.87
2019-03-05T23:51:02.953Z,9.30
2019-03-05T23:53:33.518Z,9.40
2019-03-05T23:56:04.457Z,9.10
2019-03-05T23:58:33.772Z,9.07
